createdAt,value
2022-11-18T00:06:11.982Z,15.40
2022-11-18T00:11:41.391Z,14.93
2022-11-18T00:16:44.800Z,14.70
2022-11-18T00:21:48.761Z,12.57
2022-11-18T00:26:51.888Z,13.70
2022-11-18T00:31:56.277Z,11.40
2022-11-18T00:36:59.090Z,14.03
2022-11-18T00:42:20.253Z,10.80
2022-11-18T00:47:23.201Z,10.77
2022-11-18T00:52:25.905Z,11.67
2022-11-18T00:57:29.012Z,11.20
2022-11-18T01:02:31.921Z,14.10
2022-11-18T01:07:34.735Z,13.50
2022-11-18T01:12:56.103Z,12.47
2022-11-18T01:17:59.037Z,10.40
2022-11-18T01:23:02.093Z,32.77
2022-11-18T01:28:05.367Z,16.43
2022-11-18T01:33:09.029Z,10.83
2022-11-18T01:38:16.081Z,13.33
2022-11-18T01:43:23.975Z,9.73
2022-11-18T01:48:35.010Z,12.60
2022-11-18T01:54:07.521Z,11.70
2022-11-18T01:59:19.089Z,11.43
2022-11-18T02:04:23.139Z,9.20
2022-11-18T02:09:26.044Z,11.13
2022-11-18T02:14:35.202Z,9.90
2022-11-18T02:19:47.462Z,11.57
2022-11-18T02:25:36.460Z,11.97
2022-11-18T02:30:53.751Z,9.20
2022-11-18T02:36:17.169Z,9.97
2022-11-18T02:41:27.204Z,9.93
2022-11-18T02:46:37.012Z,10.57
2022-11-18T02:51:41.976Z,9.67
2022-11-18T02:56:46.295Z,9.47
2022-11-18T03:01:49.316Z,10.20
2022-11-18T03:07:11.106Z,10.70
2022-11-18T03:12:46.730Z,7.70
2022-11-18T03:18:16.651Z,10.70
2022-11-18T03:23:54.216Z,8.43
2022-11-18T03:29:03.282Z,8.83
2022-11-18T03:34:27.487Z,9.73
2022-11-18T03:39:34.551Z,9.33
2022-11-18T03:44:41.873Z,8.07
2022-11-18T03:49:56.244Z,11.50
2022-11-18T03:55:07.182Z,10.50
2022-11-18T04:00:14.300Z,9.85
2022-11-18T04:05:19.518Z,12.23
2022-11-18T04:10:40.279Z,12.33
2022-11-18T04:15:43.368Z,13.43
2022-11-18T04:20:46.512Z,13.03
2022-11-18T04:25:49.778Z,13.53
2022-11-18T04:30:52.709Z,13.80
2022-11-18T04:35:55.970Z,14.40
2022-11-18T04:40:58.898Z,12.87
2022-11-18T04:46:01.775Z,10.33
2022-11-18T04:51:06.083Z,12.43
2022-11-18T04:56:09.162Z,12.53
2022-11-18T05:01:12.027Z,14.27
2022-11-18T05:06:14.962Z,10.27
2022-11-18T05:11:36.474Z,11.87
2022-11-18T05:16:39.458Z,12.52
2022-11-18T05:21:42.461Z,12.27
2022-11-18T05:26:46.174Z,14.40
2022-11-18T05:31:49.693Z,13.67
2022-11-18T05:36:52.591Z,13.33
2022-11-18T05:42:13.875Z,14.00
2022-11-18T05:47:16.808Z,12.38
2022-11-18T05:52:19.667Z,11.90
2022-11-18T05:57:22.589Z,12.03
2022-11-18T06:02:25.558Z,12.50
2022-11-18T06:07:48.831Z,11.57
2022-11-18T06:12:56.060Z,18.27
2022-11-18T06:18:31.396Z,14.17
2022-11-18T06:23:41.501Z,12.83
2022-11-18T06:28:48.580Z,13.73
2022-11-18T06:33:52.540Z,15.00
2022-11-18T06:38:55.428Z,15.27
2022-11-18T06:43:58.366Z,16.67
2022-11-18T06:49:02.420Z,16.60
2022-11-18T06:54:10.500Z,14.33
2022-11-18T06:59:14.390Z,11.93
2022-11-18T07:04:17.351Z,14.37
2022-11-18T07:09:20.475Z,15.67
2022-11-18T07:14:23.840Z,15.13
2022-11-18T07:19:30.211Z,12.63
2022-11-18T07:24:38.097Z,11.30
2022-11-18T07:29:41.188Z,13.07
2022-11-18T07:34:45.129Z,13.23
2022-11-18T07:39:48.169Z,12.30
2022-11-18T07:44:51.146Z,12.03
2022-11-18T07:49:54.311Z,11.53
2022-11-18T07:54:57.179Z,13.37
2022-11-18T08:00:00.207Z,12.40
2022-11-18T08:05:03.457Z,13.33
2022-11-18T08:10:07.562Z,12.50
2022-11-18T08:15:11.169Z,13.63
2022-11-18T08:20:14.829Z,12.60
2022-11-18T08:25:17.794Z,11.80
2022-11-18T08:30:21.446Z,12.63
2022-11-18T08:35:25.923Z,13.37
2022-11-18T08:40:29.024Z,14.23
2022-11-18T08:45:32.270Z,13.27
2022-11-18T08:50:35.134Z,12.17
2022-11-18T08:55:38.102Z,14.23
2022-11-18T09:00:41.208Z,12.60
2022-11-18T09:05:44.560Z,13.27
2022-11-18T09:10:47.521Z,14.50
2022-11-18T09:15:50.828Z,11.87
2022-11-18T09:20:59.097Z,12.20
2022-11-18T09:26:06.723Z,13.20
2022-11-18T09:31:14.383Z,13.63
2022-11-18T09:36:24.199Z,13.97
2022-11-18T09:41:51.078Z,11.87
2022-11-18T09:47:33.792Z,12.53
2022-11-18T09:52:40.716Z,12.60
2022-11-18T09:57:53.981Z,11.77
2022-11-18T10:03:13.899Z,15.90
2022-11-18T10:08:31.882Z,13.73
2022-11-18T10:13:46.652Z,19.27
2022-11-18T10:19:01.463Z,38.63
2022-11-18T10:24:21.496Z,33.40
2022-11-18T10:29:25.954Z,15.97
2022-11-18T10:34:29.944Z,14.53
2022-11-18T10:39:33.666Z,15.07
2022-11-18T10:44:38.710Z,15.07
2022-11-18T10:49:41.626Z,22.43
2022-11-18T10:54:44.617Z,13.07
2022-11-18T10:59:51.234Z,13.63
2022-11-18T11:04:54.570Z,15.20
2022-11-18T11:10:12.814Z,16.23
2022-11-18T11:15:28.748Z,13.73
2022-11-18T11:20:31.678Z,13.03
2022-11-18T11:31:32.066Z,11.70
2022-11-18T11:37:17.955Z,12.50
2022-11-18T11:42:42.409Z,13.33
2022-11-18T11:48:03.442Z,12.77
2022-11-18T11:53:32.754Z,11.23
2022-11-18T11:59:01.947Z,11.27
2022-11-18T12:04:43.901Z,9.53
2022-11-18T12:09:57.960Z,9.57
2022-11-18T12:15:26.005Z,16.47
2022-11-18T12:20:37.432Z,12.47
2022-11-18T12:25:53.985Z,9.98
2022-11-18T12:31:15.765Z,11.00
2022-11-18T12:36:45.331Z,16.07
2022-11-18T12:42:12.888Z,11.27
2022-11-18T12:47:37.482Z,11.60
2022-11-18T12:52:40.316Z,10.27
2022-11-18T12:57:43.250Z,10.60
2022-11-18T13:03:01.553Z,10.53
2022-11-18T13:08:18.137Z,9.67
2022-11-18T13:13:32.683Z,10.03
2022-11-18T13:18:49.391Z,9.57
2022-11-18T13:24:01.061Z,8.03
2022-11-18T13:29:33.037Z,9.97
2022-11-18T13:34:48.467Z,10.73
2022-11-18T13:39:52.466Z,9.53
2022-11-18T13:44:58.806Z,9.93
2022-11-18T13:50:10.756Z,11.77
2022-11-18T13:55:33.859Z,8.33
2022-11-18T14:00:36.985Z,11.27
2022-11-18T14:05:41.290Z,12.33
2022-11-18T14:10:45.184Z,14.57
2022-11-18T14:15:48.097Z,12.20
2022-11-18T14:20:53.985Z,11.00
2022-11-18T14:25:58.662Z,10.50
2022-11-18T14:31:26.151Z,12.17
2022-11-18T14:36:29.933Z,11.40
2022-11-18T14:41:47.573Z,11.77
2022-11-18T14:47:09.017Z,16.50
2022-11-18T14:52:11.931Z,10.88
2022-11-18T14:57:17.333Z,11.13
2022-11-18T15:02:20.356Z,12.73
2022-11-18T15:07:24.266Z,14.40
2022-11-18T15:12:27.340Z,12.97
2022-11-18T15:17:31.050Z,12.20
2022-11-18T15:22:34.744Z,11.90
2022-11-18T15:27:38.062Z,14.67
2022-11-18T15:32:41.209Z,12.80
2022-11-18T15:37:44.297Z,11.40
2022-11-18T15:42:51.764Z,13.97
2022-11-18T15:47:55.439Z,27.03
2022-11-18T15:52:58.415Z,38.10
2022-11-18T15:58:01.364Z,19.90
2022-11-18T16:03:04.252Z,23.73
2022-11-18T16:08:07.127Z,16.33
2022-11-18T16:13:09.973Z,14.37
2022-11-18T16:18:12.884Z,16.40
2022-11-18T16:23:15.695Z,16.03
2022-11-18T16:28:18.544Z,14.80
2022-11-18T16:33:21.786Z,16.17
2022-11-18T16:38:25.252Z,17.33
2022-11-18T16:43:28.128Z,17.00
2022-11-18T16:48:31.197Z,15.47
2022-11-18T16:53:34.044Z,17.40
2022-11-18T16:58:36.935Z,24.73
2022-11-18T17:03:40.333Z,18.73
2022-11-18T17:08:43.241Z,21.77
2022-11-18T17:13:46.181Z,16.73
2022-11-18T17:18:56.005Z,17.10
2022-11-18T17:23:59.066Z,14.90
2022-11-18T17:29:02.151Z,24.10
2022-11-18T17:34:05.543Z,19.00
2022-11-18T17:39:11.584Z,16.90
2022-11-18T17:44:17.788Z,17.30
2022-11-18T17:49:23.351Z,19.27
2022-11-18T17:54:29.233Z,19.63
2022-11-18T17:59:32.726Z,24.47
2022-11-18T18:04:35.699Z,27.00
2022-11-18T18:09:38.667Z,21.53
2022-11-18T18:14:43.518Z,22.37
2022-11-18T18:19:46.635Z,26.63
2022-11-18T18:24:49.527Z,16.43
2022-11-18T18:29:52.650Z,25.30
2022-11-18T18:34:55.612Z,27.70
2022-11-18T18:39:59.032Z,18.00
2022-11-18T18:45:20.177Z,29.87
2022-11-18T18:50:29.340Z,33.00
2022-11-18T18:55:32.660Z,35.93
2022-11-18T19:00:35.698Z,19.33
2022-11-18T19:06:12.631Z,14.47
2022-11-18T19:11:06.205Z,10.93
2022-11-18T19:16:09.424Z,12.17
2022-11-18T19:21:12.250Z,11.27
2022-11-18T19:26:16.026Z,9.87
2022-11-18T19:31:20.277Z,9.00
2022-11-18T19:36:23.159Z,8.67
2022-11-18T19:41:26.135Z,8.87
2022-11-18T19:46:31.726Z,8.63
2022-11-18T19:51:36.585Z,9.20
2022-11-18T19:56:39.558Z,9.47
2022-11-18T20:01:43.595Z,9.60
2022-11-18T20:06:46.688Z,9.10
2022-11-18T20:11:49.552Z,17.63
2022-11-18T20:16:52.550Z,8.60
2022-11-18T20:21:55.479Z,9.17
2022-11-18T20:26:58.428Z,7.13
2022-11-18T20:32:01.448Z,7.63
2022-11-18T20:37:04.492Z,6.37
2022-11-18T20:42:26.431Z,6.70
2022-11-18T20:47:29.434Z,7.60
2022-11-18T20:52:34.879Z,7.23
2022-11-18T20:57:37.855Z,8.90
2022-11-18T21:02:40.690Z,6.20
2022-11-18T21:07:43.688Z,6.13
2022-11-18T21:13:05.641Z,7.93
2022-11-18T21:18:08.817Z,8.45
2022-11-18T21:23:12.171Z,7.13
2022-11-18T21:28:15.011Z,7.00
2022-11-18T21:33:17.874Z,7.37
2022-11-18T21:38:20.726Z,6.63
2022-11-18T21:43:50.274Z,7.40
2022-11-18T21:48:47.218Z,7.67
2022-11-18T21:53:50.102Z,7.83
2022-11-18T21:58:53.095Z,8.13
2022-11-18T22:03:59.292Z,9.03
2022-11-18T22:09:04.132Z,9.23
2022-11-18T22:14:08.069Z,8.80
2022-11-18T22:19:10.943Z,10.20
2022-11-18T22:24:13.863Z,9.07
2022-11-18T22:29:16.942Z,10.30
2022-11-18T22:34:20.159Z,11.70
2022-11-18T22:39:23.111Z,10.50
2022-11-18T22:44:26.822Z,11.03
2022-11-18T22:49:29.565Z,10.43
2022-11-18T22:54:40.497Z,9.57
2022-11-18T22:59:43.483Z,8.90
2022-11-18T23:04:46.365Z,9.17
2022-11-18T23:09:49.337Z,9.37
2022-11-18T23:14:52.241Z,11.10
2022-11-18T23:19:55.188Z,11.47
2022-11-18T23:24:58.143Z,11.17
2022-11-18T23:30:01.042Z,10.80
2022-11-18T23:35:05.621Z,11.60
2022-11-18T23:40:09.432Z,10.87
2022-11-18T23:45:12.302Z,10.07
2022-11-18T23:50:15.431Z,9.53
2022-11-18T23:55:18.093Z,12.13
